sensor_id;sensor_type;location;lat;lon;timestamp;pressure;altitude;pressure_sealevel;temperature;humidity
76205;BME280;64986;55.672;37.628;2023-08-30T00:00:39;99377.56;;;16.17;nan
76205;BME280;64986;55.672;37.628;2023-08-30T00:03:05;99379.00;;;16.24;nan
76205;BME280;64986;55.672;37.628;2023-08-30T00:05:31;99375.69;;;16.34;nan
76205;BME280;64986;55.672;37.628;2023-08-30T00:07:57;99368.53;;;16.34;nan
76205;BME280;64986;55.672;37.628;2023-08-30T00:10:23;99374.47;;;16.42;nan
76205;BME280;64986;55.672;37.628;2023-08-30T00:12:48;99373.97;;;16.45;nan
76205;BME280;64986;55.672;37.628;2023-08-30T00:15:14;99367.06;;;16.44;nan
76205;BME280;64986;55.672;37.628;2023-08-30T00:17:39;99365.75;;;16.46;nan
76205;BME280;64986;55.672;37.628;2023-08-30T00:20:05;99376.16;;;16.48;nan
76205;BME280;64986;55.672;37.628;2023-08-30T00:22:32;99370.84;;;16.48;nan
76205;BME280;64986;55.672;37.628;2023-08-30T00:24:57;99367.13;;;16.49;nan
76205;BME280;64986;55.672;37.628;2023-08-30T00:27:23;99371.41;;;16.50;nan
76205;BME280;64986;55.672;37.628;2023-08-30T00:29:49;99377.50;;;16.50;nan
76205;BME280;64986;55.672;37.628;2023-08-30T00:32:14;99367.13;;;16.49;nan
76205;BME280;64986;55.672;37.628;2023-08-30T00:34:40;99364.47;;;16.49;nan
76205;BME280;64986;55.672;37.628;2023-08-30T00:37:05;99370.59;;;16.49;nan
76205;BME280;64986;55.672;37.628;2023-08-30T00:39:31;99379.38;;;16.50;nan
76205;BME280;64986;55.672;37.628;2023-08-30T00:41:56;99387.34;;;16.50;nan
76205;BME280;64986;55.672;37.628;2023-08-30T00:44:22;99374.31;;;16.48;nan
76205;BME280;64986;55.672;37.628;2023-08-30T00:46:48;99389.75;;;16.51;nan
76205;BME280;64986;55.672;37.628;2023-08-30T00:49:13;99386.22;;;16.46;nan
76205;BME280;64986;55.672;37.628;2023-08-30T00:51:39;99384.59;;;16.45;nan
76205;BME280;64986;55.672;37.628;2023-08-30T00:54:05;99396.84;;;16.46;nan
76205;BME280;64986;55.672;37.628;2023-08-30T00:56:32;99398.06;;;16.38;nan
76205;BME280;64986;55.672;37.628;2023-08-30T00:58:58;99401.78;;;16.37;nan
76205;BME280;64986;55.672;37.628;2023-08-30T01:01:24;99395.09;;;16.34;nan
76205;BME280;64986;55.672;37.628;2023-08-30T01:03:49;99400.78;;;16.43;nan
76205;BME280;64986;55.672;37.628;2023-08-30T01:06:15;99394.94;;;16.41;nan
76205;BME280;64986;55.672;37.628;2023-08-30T01:08:41;99400.41;;;16.34;nan
76205;BME280;64986;55.672;37.628;2023-08-30T01:13:55;99402.66;;;16.43;nan
76205;BME280;64986;55.672;37.628;2023-08-30T01:16:21;99401.06;;;16.42;nan
76205;BME280;64986;55.672;37.628;2023-08-30T01:18:49;99407.47;;;16.46;nan
76205;BME280;64986;55.672;37.628;2023-08-30T01:21:27;99412.59;;;16.52;nan
76205;BME280;64986;55.672;37.628;2023-08-30T01:23:58;99408.78;;;16.43;nan
76205;BME280;64986;55.672;37.628;2023-08-30T01:29:00;99408.97;;;16.20;nan
76205;BME280;64986;55.672;37.628;2023-08-30T01:31:27;99411.06;;;16.18;nan
76205;BME280;64986;55.672;37.628;2023-08-30T01:33:55;99414.59;;;16.06;nan
76205;BME280;64986;55.672;37.628;2023-08-30T01:36:22;99403.50;;;15.93;nan
76205;BME280;64986;55.672;37.628;2023-08-30T01:38:49;99416.53;;;15.94;nan
76205;BME280;64986;55.672;37.628;2023-08-30T01:41:15;99416.47;;;15.89;nan
76205;BME280;64986;55.672;37.628;2023-08-30T01:43:42;99416.72;;;15.88;nan
76205;BME280;64986;55.672;37.628;2023-08-30T01:46:09;99421.63;;;15.96;nan
76205;BME280;64986;55.672;37.628;2023-08-30T01:48:35;99423.63;;;16.05;nan
76205;BME280;64986;55.672;37.628;2023-08-30T01:51:03;99426.19;;;16.17;nan
76205;BME280;64986;55.672;37.628;2023-08-30T01:53:29;99423.47;;;16.12;nan
76205;BME280;64986;55.672;37.628;2023-08-30T01:55:56;99413.00;;;16.05;nan
76205;BME280;64986;55.672;37.628;2023-08-30T01:58:21;99421.13;;;15.99;nan
76205;BME280;64986;55.672;37.628;2023-08-30T02:00:47;99411.22;;;16.11;nan
76205;BME280;64986;55.672;37.628;2023-08-30T02:03:13;99413.47;;;16.19;nan
76205;BME280;64986;55.672;37.628;2023-08-30T02:08:26;99432.31;;;16.18;nan
76205;BME280;64986;55.672;37.628;2023-08-30T02:11:00;99420.56;;;16.14;nan
76205;BME280;64986;55.672;37.628;2023-08-30T02:13:28;99430.78;;;16.05;nan
76205;BME280;64986;55.672;37.628;2023-08-30T02:15:55;99425.88;;;15.97;nan
76205;BME280;64986;55.672;37.628;2023-08-30T02:18:25;99419.50;;;15.98;nan
76205;BME280;64986;55.672;37.628;2023-08-30T02:20:51;99414.50;;;16.01;nan
76205;BME280;64986;55.672;37.628;2023-08-30T02:23:16;99419.03;;;16.01;nan
76205;BME280;64986;55.672;37.628;2023-08-30T02:25:42;99418.97;;;15.96;nan
76205;BME280;64986;55.672;37.628;2023-08-30T02:28:07;99413.47;;;15.86;nan
76205;BME280;64986;55.672;37.628;2023-08-30T02:30:33;99429.41;;;15.86;nan
76205;BME280;64986;55.672;37.628;2023-08-30T02:32:58;99429.53;;;15.79;nan
76205;BME280;64986;55.672;37.628;2023-08-30T02:35:24;99435.25;;;15.71;nan
76205;BME280;64986;55.672;37.628;2023-08-30T02:37:49;99432.19;;;15.62;nan
76205;BME280;64986;55.672;37.628;2023-08-30T02:40:15;99434.59;;;15.64;nan
76205;BME280;64986;55.672;37.628;2023-08-30T02:42:40;99431.59;;;15.60;nan
76205;BME280;64986;55.672;37.628;2023-08-30T02:45:06;99442.00;;;15.62;nan
76205;BME280;64986;55.672;37.628;2023-08-30T02:47:32;99431.13;;;15.63;nan
76205;BME280;64986;55.672;37.628;2023-08-30T02:49:57;99442.66;;;15.69;nan
76205;BME280;64986;55.672;37.628;2023-08-30T02:52:23;99431.38;;;15.62;nan
76205;BME280;64986;55.672;37.628;2023-08-30T02:54:48;99434.59;;;15.64;nan
76205;BME280;64986;55.672;37.628;2023-08-30T02:57:14;99443.38;;;15.64;nan
76205;BME280;64986;55.672;37.628;2023-08-30T02:59:39;99441.75;;;15.63;nan
76205;BME280;64986;55.672;37.628;2023-08-30T03:02:05;99448.69;;;15.64;nan
76205;BME280;64986;55.672;37.628;2023-08-30T03:04:30;99436.78;;;15.67;nan
76205;BME280;64986;55.672;37.628;2023-08-30T03:06:56;99433.88;;;15.68;nan
76205;BME280;64986;55.672;37.628;2023-08-30T03:09:21;99440.72;;;15.64;nan
76205;BME280;64986;55.672;37.628;2023-08-30T03:11:47;99437.25;;;15.64;nan
76205;BME280;64986;55.672;37.628;2023-08-30T03:14:12;99434.38;;;15.65;nan
76205;BME280;64986;55.672;37.628;2023-08-30T03:16:38;99418.47;;;15.65;nan
76205;BME280;64986;55.672;37.628;2023-08-30T03:19:04;99430.75;;;15.71;nan
76205;BME280;64986;55.672;37.628;2023-08-30T03:21:29;99434.22;;;15.72;nan
76205;BME280;64986;55.672;37.628;2023-08-30T03:23:55;99436.41;;;15.75;nan
76205;BME280;64986;55.672;37.628;2023-08-30T03:26:21;99429.38;;;15.69;nan
76205;BME280;64986;55.672;37.628;2023-08-30T03:28:46;99436.63;;;15.73;nan
76205;BME280;64986;55.672;37.628;2023-08-30T03:31:16;99443.06;;;15.77;nan
76205;BME280;64986;55.672;37.628;2023-08-30T03:33:42;99446.31;;;15.79;nan
76205;BME280;64986;55.672;37.628;2023-08-30T03:36:12;99454.09;;;15.86;nan
76205;BME280;64986;55.672;37.628;2023-08-30T03:38:38;99443.00;;;15.89;nan
76205;BME280;64986;55.672;37.628;2023-08-30T03:41:04;99452.56;;;15.90;nan
76205;BME280;64986;55.672;37.628;2023-08-30T03:43:33;99449.22;;;15.95;nan
76205;BME280;64986;55.672;37.628;2023-08-30T03:46:00;99443.41;;;15.98;nan
76205;BME280;64986;55.672;37.628;2023-08-30T03:48:26;99429.88;;;15.99;nan
76205;BME280;64986;55.672;37.628;2023-08-30T03:50:52;99441.16;;;16.06;nan
76205;BME280;64986;55.672;37.628;2023-08-30T03:53:17;99429.88;;;16.16;nan
76205;BME280;64986;55.672;37.628;2023-08-30T03:55:43;99437.63;;;16.18;nan
76205;BME280;64986;55.672;37.628;2023-08-30T03:58:08;99440.50;;;16.16;nan
76205;BME280;64986;55.672;37.628;2023-08-30T04:00:38;99440.03;;;16.19;nan
76205;BME280;64986;55.672;37.628;2023-08-30T04:03:07;99434.31;;;16.27;nan
76205;BME280;64986;55.672;37.628;2023-08-30T04:05:34;99431.00;;;16.37;nan
76205;BME280;64986;55.672;37.628;2023-08-30T04:08:04;99446.72;;;16.60;nan
76205;BME280;64986;55.672;37.628;2023-08-30T04:10:37;99443.03;;;16.78;nan
76205;BME280;64986;55.672;37.628;2023-08-30T04:13:06;99450.81;;;16.85;nan
76205;BME280;64986;55.672;37.628;2023-08-30T04:15:36;99440.56;;;16.94;nan
76205;BME280;64986;55.672;37.628;2023-08-30T04:18:03;99433.75;;;17.03;nan
76205;BME280;64986;55.672;37.628;2023-08-30T04:20:29;99439.00;;;17.19;nan
76205;BME280;64986;55.672;37.628;2023-08-30T04:22:54;99434.84;;;17.29;nan
76205;BME280;64986;55.672;37.628;2023-08-30T04:25:22;99444.75;;;17.33;nan
76205;BME280;64986;55.672;37.628;2023-08-30T04:27:48;99447.25;;;17.45;nan
76205;BME280;64986;55.672;37.628;2023-08-30T04:30:13;99446.50;;;17.50;nan
76205;BME280;64986;55.672;37.628;2023-08-30T04:32:39;99438.06;;;17.58;nan
76205;BME280;64986;55.672;37.628;2023-08-30T04:35:05;99446.41;;;17.66;nan
76205;BME280;64986;55.672;37.628;2023-08-30T04:37:31;99452.09;;;17.75;nan
76205;BME280;64986;55.672;37.628;2023-08-30T04:39:57;99450.63;;;17.89;nan
76205;BME280;64986;55.672;37.628;2023-08-30T04:42:22;99447.47;;;17.92;nan
76205;BME280;64986;55.672;37.628;2023-08-30T04:44:48;99457.00;;;17.88;nan
76205;BME280;64986;55.672;37.628;2023-08-30T04:47:13;99457.09;;;17.98;nan
76205;BME280;64986;55.672;37.628;2023-08-30T04:49:39;99442.75;;;18.05;nan
76205;BME280;64986;55.672;37.628;2023-08-30T04:52:05;99459.47;;;18.27;nan
76205;BME280;64986;55.672;37.628;2023-08-30T04:54:30;99464.06;;;18.37;nan
76205;BME280;64986;55.672;37.628;2023-08-30T04:56:56;99458.28;;;18.50;nan
76205;BME280;64986;55.672;37.628;2023-08-30T04:59:21;99455.59;;;18.50;nan
76205;BME280;64986;55.672;37.628;2023-08-30T05:01:47;99465.94;;;18.41;nan
76205;BME280;64986;55.672;37.628;2023-08-30T05:04:13;99465.38;;;18.34;nan
76205;BME280;64986;55.672;37.628;2023-08-30T05:06:39;99468.66;;;18.46;nan
76205;BME280;64986;55.672;37.628;2023-08-30T05:09:04;99455.13;;;18.58;nan
76205;BME280;64986;55.672;37.628;2023-08-30T05:11:30;99461.50;;;18.52;nan
76205;BME280;64986;55.672;37.628;2023-08-30T05:13:55;99464.44;;;18.55;nan
76205;BME280;64986;55.672;37.628;2023-08-30T05:16:21;99456.53;;;18.66;nan
76205;BME280;64986;55.672;37.628;2023-08-30T05:18:46;99450.59;;;18.58;nan
76205;BME280;64986;55.672;37.628;2023-08-30T05:21:15;99447.91;;;18.53;nan
76205;BME280;64986;55.672;37.628;2023-08-30T05:23:40;99451.50;;;18.69;nan
76205;BME280;64986;55.672;37.628;2023-08-30T05:26:10;99461.19;;;18.85;nan
76205;BME280;64986;55.672;37.628;2023-08-30T05:28:38;99459.97;;;19.13;nan
76205;BME280;64986;55.672;37.628;2023-08-30T05:31:05;99446.94;;;19.32;nan
76205;BME280;64986;55.672;37.628;2023-08-30T05:33:31;99440.56;;;19.49;nan
76205;BME280;64986;55.672;37.628;2023-08-30T05:35:56;99441.38;;;19.54;nan
76205;BME280;64986;55.672;37.628;2023-08-30T05:38:23;99446.53;;;19.81;nan
76205;BME280;64986;55.672;37.628;2023-08-30T05:40:48;99442.28;;;19.95;nan
76205;BME280;64986;55.672;37.628;2023-08-30T05:43:14;99446.00;;;20.05;nan
76205;BME280;64986;55.672;37.628;2023-08-30T05:45:41;99444.94;;;20.11;nan
76205;BME280;64986;55.672;37.628;2023-08-30T05:48:06;99448.94;;;20.23;nan
76205;BME280;64986;55.672;37.628;2023-08-30T05:50:32;99441.97;;;20.38;nan
76205;BME280;64986;55.672;37.628;2023-08-30T05:52:57;99438.47;;;20.58;nan
76205;BME280;64986;55.672;37.628;2023-08-30T05:55:23;99439.81;;;20.60;nan
76205;BME280;64986;55.672;37.628;2023-08-30T05:57:48;99442.44;;;20.70;nan
76205;BME280;64986;55.672;37.628;2023-08-30T06:00:14;99457.41;;;20.76;nan
76205;BME280;64986;55.672;37.628;2023-08-30T06:02:40;99463.22;;;20.99;nan
76205;BME280;64986;55.672;37.628;2023-08-30T06:05:06;99470.91;;;21.16;nan
76205;BME280;64986;55.672;37.628;2023-08-30T06:07:32;99464.69;;;21.41;nan
76205;BME280;64986;55.672;37.628;2023-08-30T06:09:58;99468.41;;;21.45;nan
76205;BME280;64986;55.672;37.628;2023-08-30T06:12:23;99469.44;;;21.49;nan
76205;BME280;64986;55.672;37.628;2023-08-30T06:14:51;99466.19;;;21.57;nan
76205;BME280;64986;55.672;37.628;2023-08-30T06:17:20;99475.03;;;21.52;nan
76205;BME280;64986;55.672;37.628;2023-08-30T06:19:46;99479.91;;;21.45;nan
76205;BME280;64986;55.672;37.628;2023-08-30T06:22:12;99484.69;;;21.53;nan
76205;BME280;64986;55.672;37.628;2023-08-30T06:24:38;99475.34;;;21.46;nan
76205;BME280;64986;55.672;37.628;2023-08-30T06:27:03;99473.81;;;21.35;nan
76205;BME280;64986;55.672;37.628;2023-08-30T06:29:29;99476.47;;;21.40;nan
76205;BME280;64986;55.672;37.628;2023-08-30T06:31:55;99463.53;;;21.52;nan
76205;BME280;64986;55.672;37.628;2023-08-30T06:34:20;99457.47;;;21.75;nan
76205;BME280;64986;55.672;37.628;2023-08-30T06:36:46;99466.34;;;22.15;nan
76205;BME280;64986;55.672;37.628;2023-08-30T06:39:11;99463.22;;;22.32;nan
76205;BME280;64986;55.672;37.628;2023-08-30T06:41:36;99459.78;;;22.26;nan
76205;BME280;64986;55.672;37.628;2023-08-30T06:44:02;99472.06;;;22.32;nan
76205;BME280;64986;55.672;37.628;2023-08-30T06:46:28;99468.25;;;22.09;nan
76205;BME280;64986;55.672;37.628;2023-08-30T06:48:54;99464.38;;;21.86;nan
76205;BME280;64986;55.672;37.628;2023-08-30T06:51:19;99453.81;;;21.61;nan
76205;BME280;64986;55.672;37.628;2023-08-30T06:53:45;99468.28;;;21.65;nan
76205;BME280;64986;55.672;37.628;2023-08-30T06:56:12;99461.22;;;21.40;nan
76205;BME280;64986;55.672;37.628;2023-08-30T06:58:37;99470.38;;;21.24;nan
76205;BME280;64986;55.672;37.628;2023-08-30T07:01:03;99477.91;;;21.06;nan
76205;BME280;64986;55.672;37.628;2023-08-30T07:03:28;99487.88;;;20.96;nan
76205;BME280;64986;55.672;37.628;2023-08-30T07:05:54;99485.66;;;21.08;nan
76205;BME280;64986;55.672;37.628;2023-08-30T07:08:20;99473.41;;;20.97;nan
76205;BME280;64986;55.672;37.628;2023-08-30T07:10:45;99465.56;;;21.16;nan
76205;BME280;64986;55.672;37.628;2023-08-30T07:13:11;99471.78;;;21.60;nan
76205;BME280;64986;55.672;37.628;2023-08-30T07:15:41;99471.25;;;21.98;nan
76205;BME280;64986;55.672;37.628;2023-08-30T07:18:10;99490.94;;;22.22;nan
76205;BME280;64986;55.672;37.628;2023-08-30T07:20:36;99485.97;;;22.39;nan
76205;BME280;64986;55.672;37.628;2023-08-30T07:23:02;99486.47;;;22.41;nan
76205;BME280;64986;55.672;37.628;2023-08-30T07:25:29;99489.88;;;22.23;nan
76205;BME280;64986;55.672;37.628;2023-08-30T07:27:56;99488.06;;;22.42;nan
76205;BME280;64986;55.672;37.628;2023-08-30T07:30:21;99496.94;;;22.67;nan
76205;BME280;64986;55.672;37.628;2023-08-30T07:32:47;99489.25;;;22.60;nan
76205;BME280;64986;55.672;37.628;2023-08-30T07:35:13;99482.63;;;22.53;nan
76205;BME280;64986;55.672;37.628;2023-08-30T07:37:38;99491.38;;;22.63;nan
76205;BME280;64986;55.672;37.628;2023-08-30T07:40:04;99491.00;;;22.75;nan
76205;BME280;64986;55.672;37.628;2023-08-30T07:42:30;99482.56;;;22.87;nan
76205;BME280;64986;55.672;37.628;2023-08-30T07:44:55;99490.59;;;23.11;nan
76205;BME280;64986;55.672;37.628;2023-08-30T07:47:21;99482.34;;;23.26;nan
76205;BME280;64986;55.672;37.628;2023-08-30T07:49:46;99480.03;;;23.38;nan
76205;BME280;64986;55.672;37.628;2023-08-30T07:52:12;99484.59;;;23.19;nan
76205;BME280;64986;55.672;37.628;2023-08-30T07:54:39;99489.44;;;23.17;nan
76205;BME280;64986;55.672;37.628;2023-08-30T07:57:05;99492.31;;;23.02;nan
76205;BME280;64986;55.672;37.628;2023-08-30T07:59:33;99488.84;;;23.01;nan
76205;BME280;64986;55.672;37.628;2023-08-30T08:01:59;99485.19;;;22.63;nan
76205;BME280;64986;55.672;37.628;2023-08-30T08:04:25;99492.41;;;22.38;nan
76205;BME280;64986;55.672;37.628;2023-08-30T08:06:50;99502.41;;;22.28;nan
76205;BME280;64986;55.672;37.628;2023-08-30T08:09:17;99499.06;;;22.46;nan
76205;BME280;64986;55.672;37.628;2023-08-30T08:11:42;99497.53;;;22.64;nan
76205;BME280;64986;55.672;37.628;2023-08-30T08:14:11;99502.25;;;23.01;nan
76205;BME280;64986;55.672;37.628;2023-08-30T08:16:37;99501.63;;;23.09;nan
76205;BME280;64986;55.672;37.628;2023-08-30T08:19:03;99508.94;;;23.04;nan
76205;BME280;64986;55.672;37.628;2023-08-30T08:21:28;99496.81;;;22.82;nan
76205;BME280;64986;55.672;37.628;2023-08-30T08:23:54;99505.94;;;22.81;nan
76205;BME280;64986;55.672;37.628;2023-08-30T08:26:19;99509.16;;;22.83;nan
76205;BME280;64986;55.672;37.628;2023-08-30T08:28:45;99516.03;;;22.94;nan
76205;BME280;64986;55.672;37.628;2023-08-30T08:31:10;99519.09;;;22.83;nan
76205;BME280;64986;55.672;37.628;2023-08-30T08:33:36;99515.66;;;22.77;nan
76205;BME280;64986;55.672;37.628;2023-08-30T08:36:02;99514.22;;;22.90;nan
76205;BME280;64986;55.672;37.628;2023-08-30T08:38:27;99521.06;;;23.01;nan
76205;BME280;64986;55.672;37.628;2023-08-30T08:41:01;99522.91;;;23.06;nan
76205;BME280;64986;55.672;37.628;2023-08-30T08:43:28;99518.16;;;22.97;nan
76205;BME280;64986;55.672;37.628;2023-08-30T08:45:57;99522.63;;;22.78;nan
76205;BME280;64986;55.672;37.628;2023-08-30T08:48:25;99520.13;;;22.58;nan
76205;BME280;64986;55.672;37.628;2023-08-30T08:50:54;99521.53;;;22.79;nan
76205;BME280;64986;55.672;37.628;2023-08-30T08:53:20;99529.94;;;22.96;nan
76205;BME280;64986;55.672;37.628;2023-08-30T08:55:47;99526.72;;;23.00;nan
76205;BME280;64986;55.672;37.628;2023-08-30T08:58:14;99524.94;;;23.14;nan
76205;BME280;64986;55.672;37.628;2023-08-30T09:00:42;99527.16;;;23.31;nan
76205;BME280;64986;55.672;37.628;2023-08-30T09:03:08;99529.34;;;23.29;nan
76205;BME280;64986;55.672;37.628;2023-08-30T09:05:37;99537.91;;;23.31;nan
76205;BME280;64986;55.672;37.628;2023-08-30T09:08:03;99537.81;;;23.60;nan
76205;BME280;64986;55.672;37.628;2023-08-30T09:10:29;99541.91;;;23.95;nan
76205;BME280;64986;55.672;37.628;2023-08-30T09:12:55;99537.91;;;24.11;nan
76205;BME280;64986;55.672;37.628;2023-08-30T09:15:20;99544.25;;;24.53;nan
76205;BME280;64986;55.672;37.628;2023-08-30T09:17:47;99554.44;;;24.70;nan
76205;BME280;64986;55.672;37.628;2023-08-30T09:20:13;99544.19;;;24.72;nan
76205;BME280;64986;55.672;37.628;2023-08-30T09:22:42;99541.25;;;25.42;nan
76205;BME280;64986;55.672;37.628;2023-08-30T09:25:11;99547.75;;;26.58;nan
76205;BME280;64986;55.672;37.628;2023-08-30T09:27:37;99548.38;;;27.83;nan
76205;BME280;64986;55.672;37.628;2023-08-30T09:30:07;99556.16;;;28.45;nan
76205;BME280;64986;55.672;37.628;2023-08-30T09:32:39;99555.28;;;28.70;nan
76205;BME280;64986;55.672;37.628;2023-08-30T09:35:06;99547.59;;;27.91;nan
76205;BME280;64986;55.672;37.628;2023-08-30T09:37:32;99550.84;;;27.36;nan
76205;BME280;64986;55.672;37.628;2023-08-30T09:39:57;99537.63;;;26.95;nan
76205;BME280;64986;55.672;37.628;2023-08-30T09:42:23;99546.00;;;27.16;nan
76205;BME280;64986;55.672;37.628;2023-08-30T09:44:48;99543.59;;;27.88;nan
76205;BME280;64986;55.672;37.628;2023-08-30T09:47:14;99551.06;;;28.09;nan
76205;BME280;64986;55.672;37.628;2023-08-30T09:49:44;99561.16;;;27.43;nan
76205;BME280;64986;55.672;37.628;2023-08-30T09:52:12;99563.19;;;26.58;nan
76205;BME280;64986;55.672;37.628;2023-08-30T09:54:41;99561.22;;;25.91;nan
76205;BME280;64986;55.672;37.628;2023-08-30T09:57:09;99560.47;;;25.63;nan
76205;BME280;64986;55.672;37.628;2023-08-30T09:59:36;99579.75;;;25.56;nan
76205;BME280;64986;55.672;37.628;2023-08-30T10:02:03;99577.63;;;25.67;nan
76205;BME280;64986;55.672;37.628;2023-08-30T10:04:31;99574.84;;;25.58;nan
76205;BME280;64986;55.672;37.628;2023-08-30T10:06:58;99568.47;;;25.54;nan
76205;BME280;64986;55.672;37.628;2023-08-30T10:09:24;99581.44;;;25.52;nan
76205;BME280;64986;55.672;37.628;2023-08-30T10:11:50;99571.72;;;25.92;nan
76205;BME280;64986;55.672;37.628;2023-08-30T10:14:16;99569.91;;;27.00;nan
76205;BME280;64986;55.672;37.628;2023-08-30T10:19:24;99566.25;;;28.91;nan
76205;BME280;64986;55.672;37.628;2023-08-30T10:22:08;99566.63;;;29.19;nan
76205;BME280;64986;55.672;37.628;2023-08-30T10:24:57;99566.69;;;29.40;nan
76205;BME280;64986;55.672;37.628;2023-08-30T10:27:25;99562.09;;;30.57;nan
76205;BME280;64986;55.672;37.628;2023-08-30T10:29:52;99552.88;;;31.68;nan
76205;BME280;64986;55.672;37.628;2023-08-30T10:32:21;99553.09;;;32.03;nan
76205;BME280;64986;55.672;37.628;2023-08-30T10:34:48;99556.41;;;31.57;nan
76205;BME280;64986;55.672;37.628;2023-08-30T10:37:14;99568.41;;;29.95;nan
76205;BME280;64986;55.672;37.628;2023-08-30T10:39:41;99555.81;;;29.11;nan
76205;BME280;64986;55.672;37.628;2023-08-30T10:42:14;99561.69;;;30.67;nan
76205;BME280;64986;55.672;37.628;2023-08-30T10:44:59;99558.38;;;32.24;nan
76205;BME280;64986;55.672;37.628;2023-08-30T10:47:27;99545.94;;;31.59;nan
76205;BME280;64986;55.672;37.628;2023-08-30T10:49:57;99544.94;;;31.51;nan
76205;BME280;64986;55.672;37.628;2023-08-30T10:52:24;99550.59;;;30.73;nan
76205;BME280;64986;55.672;37.628;2023-08-30T10:54:49;99553.69;;;30.38;nan
76205;BME280;64986;55.672;37.628;2023-08-30T10:57:24;99550.50;;;31.67;nan
76205;BME280;64986;55.672;37.628;2023-08-30T11:02:32;99553.69;;;33.48;nan
76205;BME280;64986;55.672;37.628;2023-08-30T11:04:59;99549.38;;;33.31;nan
76205;BME280;64986;55.672;37.628;2023-08-30T11:07:25;99547.78;;;33.81;nan
76205;BME280;64986;55.672;37.628;2023-08-30T11:09:54;99557.78;;;34.73;nan
76205;BME280;64986;55.672;37.628;2023-08-30T11:12:20;99548.34;;;35.73;nan
76205;BME280;64986;55.672;37.628;2023-08-30T11:14:49;99545.69;;;36.10;nan
76205;BME280;64986;55.672;37.628;2023-08-30T11:17:18;99541.91;;;37.04;nan
76205;BME280;64986;55.672;37.628;2023-08-30T11:19:44;99538.34;;;37.69;nan
76205;BME280;64986;55.672;37.628;2023-08-30T11:22:11;99531.50;;;38.18;nan
76205;BME280;64986;55.672;37.628;2023-08-30T11:24:38;99537.88;;;38.86;nan
76205;BME280;64986;55.672;37.628;2023-08-30T11:27:03;99546.41;;;39.70;nan
76205;BME280;64986;55.672;37.628;2023-08-30T11:29:29;99539.47;;;40.21;nan
76205;BME280;64986;55.672;37.628;2023-08-30T11:31:55;99538.44;;;39.86;nan
76205;BME280;64986;55.672;37.628;2023-08-30T11:34:21;99554.22;;;39.75;nan
76205;BME280;64986;55.672;37.628;2023-08-30T11:36:50;99543.84;;;40.15;nan
76205;BME280;64986;55.672;37.628;2023-08-30T11:39:16;99534.69;;;40.81;nan
76205;BME280;64986;55.672;37.628;2023-08-30T11:41:43;99532.97;;;40.53;nan
76205;BME280;64986;55.672;37.628;2023-08-30T11:44:09;99541.78;;;38.99;nan
76205;BME280;64986;55.672;37.628;2023-08-30T11:46:35;99539.81;;;38.61;nan
76205;BME280;64986;55.672;37.628;2023-08-30T11:49:00;99543.75;;;39.02;nan
76205;BME280;64986;55.672;37.628;2023-08-30T11:51:28;99539.47;;;40.17;nan
76205;BME280;64986;55.672;37.628;2023-08-30T11:53:55;99539.03;;;41.61;nan
76205;BME280;64986;55.672;37.628;2023-08-30T11:56:21;99537.16;;;41.54;nan
76205;BME280;64986;55.672;37.628;2023-08-30T11:58:46;99545.63;;;41.74;nan
76205;BME280;64986;55.672;37.628;2023-08-30T12:01:12;99541.91;;;42.69;nan
76205;BME280;64986;55.672;37.628;2023-08-30T12:03:39;99541.03;;;43.18;nan
76205;BME280;64986;55.672;37.628;2023-08-30T12:06:09;99553.00;;;43.95;nan
76205;BME280;64986;55.672;37.628;2023-08-30T12:08:35;99538.47;;;43.08;nan
76205;BME280;64986;55.672;37.628;2023-08-30T12:11:01;99543.06;;;41.87;nan
76205;BME280;64986;55.672;37.628;2023-08-30T12:13:34;99536.97;;;40.93;nan
76205;BME280;64986;55.672;37.628;2023-08-30T12:16:01;99524.84;;;40.80;nan
76205;BME280;64986;55.672;37.628;2023-08-30T12:18:29;99523.91;;;40.48;nan
76205;BME280;64986;55.672;37.628;2023-08-30T12:23:30;99515.50;;;42.37;nan
76205;BME280;64986;55.672;37.628;2023-08-30T12:26:00;99507.72;;;42.79;nan
76205;BME280;64986;55.672;37.628;2023-08-30T12:28:27;99506.22;;;43.17;nan
76205;BME280;64986;55.672;37.628;2023-08-30T12:30:54;99503.41;;;43.97;nan
76205;BME280;64986;55.672;37.628;2023-08-30T12:33:19;99489.50;;;43.61;nan
76205;BME280;64986;55.672;37.628;2023-08-30T12:35:45;99487.91;;;42.80;nan
76205;BME280;64986;55.672;37.628;2023-08-30T12:38:11;99490.75;;;41.99;nan
76205;BME280;64986;55.672;37.628;2023-08-30T12:40:46;99482.25;;;41.18;nan
76205;BME280;64986;55.672;37.628;2023-08-30T12:43:15;99476.44;;;41.77;nan
76205;BME280;64986;55.672;37.628;2023-08-30T12:45:42;99476.22;;;41.92;nan
76205;BME280;64986;55.672;37.628;2023-08-30T12:48:09;99471.34;;;41.08;nan
76205;BME280;64986;55.672;37.628;2023-08-30T12:50:36;99476.94;;;38.55;nan
76205;BME280;64986;55.672;37.628;2023-08-30T12:53:05;99473.75;;;37.23;nan
76205;BME280;64986;55.672;37.628;2023-08-30T12:55:32;99468.88;;;36.88;nan
76205;BME280;64986;55.672;37.628;2023-08-30T12:57:58;99460.47;;;36.67;nan
76205;BME280;64986;55.672;37.628;2023-08-30T13:00:24;99459.47;;;36.04;nan
76205;BME280;64986;55.672;37.628;2023-08-30T13:02:50;99465.72;;;35.38;nan
76205;BME280;64986;55.672;37.628;2023-08-30T13:05:16;99456.66;;;35.03;nan
76205;BME280;64986;55.672;37.628;2023-08-30T13:07:42;99443.25;;;34.95;nan
76205;BME280;64986;55.672;37.628;2023-08-30T13:10:07;99444.94;;;35.67;nan
76205;BME280;64986;55.672;37.628;2023-08-30T13:12:33;99437.66;;;34.61;nan
76205;BME280;64986;55.672;37.628;2023-08-30T13:14:59;99431.97;;;33.85;nan
76205;BME280;64986;55.672;37.628;2023-08-30T13:17:25;99428.84;;;34.75;nan
76205;BME280;64986;55.672;37.628;2023-08-30T13:19:50;99416.59;;;37.47;nan
76205;BME280;64986;55.672;37.628;2023-08-30T13:22:16;99405.69;;;39.91;nan